createdAt,value
2023-04-06T00:01:32.106Z,8.38
2023-04-06T00:03:59.878Z,9.20
2023-04-06T00:06:27.822Z,6.55
2023-04-06T00:08:55.565Z,9.80
2023-04-06T00:11:23.155Z,5.82
2023-04-06T00:13:50.613Z,11.10
2023-04-06T00:16:18.103Z,9.75
2023-04-06T00:18:45.865Z,11.20
2023-04-06T00:21:16.845Z,9.70
2023-04-06T00:23:44.202Z,8.25
2023-04-06T00:26:14.085Z,7.13
2023-04-06T00:28:46.455Z,8.70
2023-04-06T00:31:14.250Z,10.43
2023-04-06T00:33:41.608Z,8.85
2023-04-06T00:36:08.990Z,7.63
2023-04-06T00:38:36.213Z,8.27
2023-04-06T00:41:05.428Z,8.07
2023-04-06T00:43:33.284Z,9.00
2023-04-06T00:46:00.639Z,8.25
2023-04-06T00:48:28.116Z,7.35
2023-04-06T00:50:55.380Z,6.20
2023-04-06T00:53:22.890Z,7.13
2023-04-06T00:55:52.480Z,7.05
2023-04-06T00:58:20.762Z,9.93
2023-04-06T01:00:53.455Z,8.45
2023-04-06T01:03:23.675Z,8.00
2023-04-06T01:05:56.330Z,7.63
2023-04-06T01:08:26.877Z,10.23
2023-04-06T01:11:04.261Z,9.77
2023-04-06T01:13:31.853Z,9.65
2023-04-06T01:16:03.229Z,11.30
2023-04-06T01:19:08.829Z,8.02
2023-04-06T01:21:37.795Z,7.90
2023-04-06T01:24:22.587Z,8.68
2023-04-06T01:27:05.824Z,7.28
2023-04-06T01:29:59.122Z,7.40
2023-04-06T01:32:49.354Z,6.07
2023-04-06T01:35:23.365Z,7.93
2023-04-06T01:38:03.251Z,8.70
2023-04-06T01:40:33.845Z,6.88
2023-04-06T01:43:01.498Z,6.68
2023-04-06T01:48:14.640Z,8.88
2023-04-06T01:50:42.242Z,7.63
2023-04-06T01:53:12.053Z,6.32
2023-04-06T01:55:41.405Z,6.45
2023-04-06T01:58:19.705Z,9.55
2023-04-06T02:00:46.983Z,7.00
2023-04-06T02:03:16.005Z,7.68
2023-04-06T02:05:44.137Z,7.07
2023-04-06T02:08:37.432Z,9.05
2023-04-06T02:11:05.810Z,7.63
2023-04-06T02:13:42.472Z,5.90
2023-04-06T02:16:11.719Z,6.00
2023-04-06T02:18:39.152Z,6.07
2023-04-06T02:21:06.727Z,6.45
2023-04-06T02:23:33.939Z,6.93
2023-04-06T02:26:01.437Z,5.10
2023-04-06T02:28:29.496Z,4.95
2023-04-06T02:30:56.907Z,7.15
2023-04-06T02:33:27.702Z,3.78
2023-04-06T02:35:55.377Z,4.80
2023-04-06T02:38:23.781Z,5.38
2023-04-06T02:40:53.088Z,6.03
2023-04-06T02:43:25.685Z,6.38
2023-04-06T02:46:00.227Z,4.78
2023-04-06T02:48:27.809Z,6.88
2023-04-06T02:50:55.495Z,5.53
2023-04-06T02:53:23.034Z,5.18
2023-04-06T02:55:50.365Z,3.88
2023-04-06T02:58:17.740Z,5.25
2023-04-06T03:00:49.644Z,6.15
2023-04-06T03:03:17.068Z,5.53
2023-04-06T03:05:45.745Z,5.63
2023-04-06T03:08:14.526Z,6.40
2023-04-06T03:10:46.416Z,8.25
2023-04-06T03:13:15.689Z,5.43
2023-04-06T03:15:49.332Z,5.50
2023-04-06T03:18:26.403Z,6.15
2023-04-06T03:20:55.337Z,5.95
2023-04-06T03:23:26.725Z,5.68
2023-04-06T03:25:58.887Z,7.43
2023-04-06T03:28:26.241Z,6.22
2023-04-06T03:31:04.033Z,6.10
2023-04-06T03:33:57.537Z,6.15
2023-04-06T03:36:31.818Z,6.03
2023-04-06T03:38:59.824Z,6.55
2023-04-06T03:41:27.354Z,5.95
2023-04-06T03:44:11.028Z,5.00
2023-04-06T03:46:38.369Z,6.53
2023-04-06T03:49:06.103Z,6.35
2023-04-06T03:51:33.856Z,6.13
2023-04-06T03:54:01.151Z,5.50
2023-04-06T03:56:28.397Z,6.55
2023-04-06T03:58:55.638Z,6.00
2023-04-06T04:01:23.135Z,7.53
2023-04-06T04:03:51.903Z,6.35
2023-04-06T04:06:19.407Z,6.28
2023-04-06T04:08:47.034Z,7.45
2023-04-06T04:11:14.356Z,7.25
2023-04-06T04:13:41.659Z,5.70
2023-04-06T04:16:10.325Z,8.25
2023-04-06T04:18:37.734Z,5.45
2023-04-06T04:21:06.604Z,6.95
2023-04-06T04:23:35.908Z,6.90
2023-04-06T04:26:04.558Z,7.97
2023-04-06T04:28:31.947Z,6.82
2023-04-06T04:30:59.394Z,6.18
2023-04-06T04:33:28.410Z,9.13
2023-04-06T04:35:57.682Z,7.00
2023-04-06T04:38:28.276Z,5.65
2023-04-06T04:40:57.584Z,8.75
2023-04-06T04:43:24.868Z,7.00
2023-04-06T04:45:53.454Z,4.80
2023-04-06T04:48:36.645Z,6.43
2023-04-06T04:51:06.930Z,7.05
2023-04-06T04:53:49.628Z,5.65
2023-04-06T04:56:22.531Z,8.63
2023-04-06T04:58:54.821Z,6.50
2023-04-06T05:01:23.176Z,7.25
2023-04-06T05:03:51.738Z,6.88
2023-04-06T05:06:20.460Z,8.00
2023-04-06T05:08:48.412Z,5.50
2023-04-06T05:11:16.592Z,8.00
2023-04-06T05:13:47.346Z,10.23
2023-04-06T05:16:22.155Z,6.25
2023-04-06T05:18:51.352Z,6.05
2023-04-06T05:21:20.268Z,8.93
2023-04-06T05:24:07.945Z,8.38
2023-04-06T05:26:35.830Z,5.18
2023-04-06T05:29:12.332Z,9.48
2023-04-06T05:31:41.052Z,6.90
2023-04-06T05:34:10.703Z,6.85
2023-04-06T05:36:38.993Z,7.03
2023-04-06T05:39:14.902Z,7.80
2023-04-06T05:41:46.190Z,7.05
2023-04-06T05:44:14.715Z,8.27
2023-04-06T05:46:45.650Z,8.32
2023-04-06T05:49:17.393Z,10.27
2023-04-06T05:51:45.114Z,8.45
2023-04-06T05:54:12.665Z,5.20
2023-04-06T05:56:41.457Z,5.70
2023-04-06T05:59:11.375Z,7.30
2023-04-06T06:01:39.193Z,7.18
2023-04-06T06:04:07.042Z,9.20
2023-04-06T06:06:37.972Z,7.68
2023-04-06T06:09:17.029Z,9.52
2023-04-06T06:11:54.224Z,7.05
2023-04-06T06:14:25.926Z,8.70
2023-04-06T06:16:53.156Z,6.22
2023-04-06T06:19:20.749Z,6.63
2023-04-06T06:21:48.720Z,6.65
2023-04-06T06:24:16.197Z,9.30
2023-04-06T06:26:44.085Z,7.07
2023-04-06T06:29:13.798Z,9.85
2023-04-06T06:31:41.245Z,10.73
2023-04-06T06:34:08.869Z,10.52
2023-04-06T06:36:38.252Z,10.85
2023-04-06T06:39:08.988Z,9.73
2023-04-06T06:41:38.319Z,11.95
2023-04-06T06:44:06.810Z,10.13
2023-04-06T06:46:36.120Z,9.70
2023-04-06T06:49:04.105Z,10.88
2023-04-06T06:51:31.780Z,9.15
2023-04-06T06:53:59.141Z,12.48
2023-04-06T06:56:27.810Z,13.40
2023-04-06T06:58:56.090Z,9.63
2023-04-06T07:01:23.819Z,14.23
2023-04-06T07:03:51.656Z,10.18
2023-04-06T07:06:18.950Z,13.48
2023-04-06T07:08:46.678Z,12.40
2023-04-06T07:11:16.812Z,10.15
2023-04-06T07:13:44.347Z,18.88
2023-04-06T07:16:12.102Z,10.70
2023-04-06T07:18:39.439Z,9.95
2023-04-06T07:21:06.705Z,13.10
2023-04-06T07:23:34.089Z,7.25
2023-04-06T07:26:01.449Z,6.88
2023-04-06T07:28:28.742Z,7.70
2023-04-06T07:30:56.647Z,7.55
2023-04-06T07:33:24.215Z,12.50
2023-04-06T07:35:52.542Z,9.20
2023-04-06T07:38:20.237Z,11.63
2023-04-06T07:40:47.609Z,10.65
2023-04-06T07:43:15.121Z,7.88
2023-04-06T07:45:43.042Z,9.55
2023-04-06T07:48:10.964Z,10.07
2023-04-06T07:50:38.513Z,10.30
2023-04-06T07:53:06.937Z,8.57
2023-04-06T07:55:36.122Z,9.27
2023-04-06T07:58:03.409Z,12.10
2023-04-06T08:00:31.369Z,11.45
2023-04-06T08:02:58.842Z,9.80
2023-04-06T08:05:26.290Z,10.98
2023-04-06T08:07:53.644Z,11.98
2023-04-06T08:10:20.936Z,12.25
2023-04-06T08:12:48.214Z,9.02
2023-04-06T08:15:15.947Z,9.85
2023-04-06T08:17:43.292Z,15.27
2023-04-06T08:20:11.110Z,12.48
2023-04-06T08:22:38.381Z,16.08
2023-04-06T08:25:06.432Z,9.70
2023-04-06T08:27:33.682Z,9.10
2023-04-06T08:30:01.096Z,8.85
2023-04-06T08:32:28.701Z,9.40
2023-04-06T08:34:56.438Z,10.52
2023-04-06T08:37:24.180Z,11.02
2023-04-06T08:39:51.807Z,9.85
2023-04-06T08:42:22.987Z,10.18
2023-04-06T08:44:52.421Z,10.68
2023-04-06T08:47:23.058Z,8.93
2023-04-06T08:49:53.484Z,8.73
2023-04-06T08:52:21.369Z,9.88
2023-04-06T08:54:48.837Z,12.13
2023-04-06T08:57:17.504Z,6.72
2023-04-06T08:59:45.299Z,10.73
2023-04-06T09:02:18.731Z,8.40
2023-04-06T09:04:50.745Z,11.20
2023-04-06T09:07:18.283Z,10.02
2023-04-06T09:09:50.049Z,10.65
2023-04-06T09:12:32.089Z,7.95
2023-04-06T09:15:00.986Z,9.38
2023-04-06T09:17:34.614Z,7.07
2023-04-06T09:20:08.458Z,10.70
2023-04-06T09:22:40.479Z,11.23
2023-04-06T09:25:09.348Z,8.10
2023-04-06T09:27:38.155Z,8.18
2023-04-06T09:30:14.642Z,9.70
2023-04-06T09:32:53.258Z,13.48
2023-04-06T09:35:21.417Z,9.82
2023-04-06T09:37:52.746Z,7.72
2023-04-06T09:40:21.960Z,8.82
2023-04-06T09:42:58.315Z,12.20
2023-04-06T09:45:26.393Z,10.05
2023-04-06T09:47:57.236Z,6.78
2023-04-06T09:50:26.762Z,8.45
2023-04-06T09:52:58.826Z,9.38
2023-04-06T09:55:36.549Z,10.60
2023-04-06T09:58:12.542Z,9.05
2023-04-06T10:00:57.841Z,11.98
2023-04-06T10:03:46.198Z,10.18
2023-04-06T10:06:15.965Z,10.88
2023-04-06T10:08:46.668Z,6.90
2023-04-06T10:11:14.252Z,8.80
2023-04-06T10:13:42.947Z,9.82
2023-04-06T10:16:11.130Z,9.63
2023-04-06T10:18:43.678Z,10.93
2023-04-06T10:21:15.361Z,8.13
2023-04-06T10:23:59.959Z,12.05
2023-04-06T10:26:27.348Z,11.00
2023-04-06T10:28:55.683Z,10.27
2023-04-06T10:31:27.797Z,8.32
2023-04-06T10:34:03.187Z,8.52
2023-04-06T10:36:35.177Z,9.25
2023-04-06T10:39:07.386Z,8.90
2023-04-06T10:41:36.986Z,9.73
2023-04-06T10:44:04.772Z,8.85
2023-04-06T10:46:34.010Z,9.25
2023-04-06T10:49:13.126Z,10.07
2023-04-06T10:51:41.013Z,9.75
2023-04-06T10:54:08.895Z,12.45
2023-04-06T10:56:39.909Z,11.30
2023-04-06T10:59:08.641Z,11.95
2023-04-06T11:01:36.331Z,10.38
2023-04-06T11:04:04.194Z,11.55
2023-04-06T11:06:33.416Z,9.50
2023-04-06T11:09:01.205Z,11.65
2023-04-06T11:11:28.722Z,12.45
2023-04-06T11:14:00.671Z,11.48
2023-04-06T11:16:31.074Z,12.38
2023-04-06T11:19:01.339Z,11.68
2023-04-06T11:21:49.993Z,9.48
2023-04-06T11:24:25.163Z,11.63
2023-04-06T11:26:57.861Z,12.68
2023-04-06T11:29:28.071Z,9.32
2023-04-06T11:32:02.792Z,9.02
2023-04-06T11:34:38.391Z,10.93
2023-04-06T11:37:16.072Z,11.73
2023-04-06T11:40:10.265Z,9.20
2023-04-06T11:42:48.891Z,9.45
2023-04-06T11:45:17.113Z,10.85
2023-04-06T11:47:45.428Z,11.05
2023-04-06T11:50:16.880Z,13.40
2023-04-06T11:52:44.646Z,11.68
2023-04-06T11:55:16.862Z,12.18
2023-04-06T11:57:44.637Z,13.73
2023-04-06T12:00:13.289Z,12.52
2023-04-06T12:02:40.957Z,10.88
2023-04-06T12:05:09.470Z,10.77
2023-04-06T12:07:37.256Z,12.23
2023-04-06T12:10:05.962Z,12.05
2023-04-06T12:12:33.417Z,10.60
2023-04-06T12:15:00.956Z,11.43
2023-04-06T12:17:28.301Z,11.85
2023-04-06T12:19:57.175Z,13.02
2023-04-06T12:22:29.443Z,10.27
2023-04-06T12:24:56.705Z,10.40
2023-04-06T12:27:23.993Z,10.75
2023-04-06T12:29:51.669Z,13.23
2023-04-06T12:32:19.178Z,9.73
2023-04-06T12:34:46.449Z,10.68
2023-04-06T12:37:13.722Z,11.60
2023-04-06T12:39:41.752Z,11.57
2023-04-06T12:42:10.157Z,12.25
2023-04-06T12:44:37.451Z,10.75
2023-04-06T12:47:05.314Z,13.02
2023-04-06T12:49:32.696Z,13.50
2023-04-06T12:52:00.033Z,13.57
2023-04-06T12:54:28.659Z,11.38
2023-04-06T12:56:57.471Z,13.02
2023-04-06T12:59:26.216Z,11.90
2023-04-06T13:01:53.803Z,11.52
2023-04-06T13:04:21.158Z,10.48
2023-04-06T13:06:48.368Z,11.55
2023-04-06T13:09:15.697Z,11.55
2023-04-06T13:11:43.105Z,10.77
2023-04-06T13:14:10.727Z,15.07
2023-04-06T13:16:38.592Z,10.50
2023-04-06T13:19:06.334Z,10.45
2023-04-06T13:21:34.295Z,11.70
2023-04-06T13:24:06.034Z,11.65
2023-04-06T13:26:33.384Z,12.02
2023-04-06T13:29:01.747Z,14.40
2023-04-06T13:31:29.405Z,11.63
2023-04-06T13:33:56.693Z,11.23
2023-04-06T13:36:23.973Z,11.35
2023-04-06T13:38:51.416Z,14.13
2023-04-06T13:41:22.367Z,11.68
2023-04-06T13:43:50.726Z,9.90
2023-04-06T13:46:18.046Z,20.90
2023-04-06T13:48:45.740Z,15.90
2023-04-06T13:51:14.550Z,12.98
2023-04-06T13:53:42.044Z,10.88
2023-04-06T13:56:09.384Z,11.07
2023-04-06T13:58:37.536Z,15.13
2023-04-06T14:01:07.470Z,11.50
2023-04-06T14:03:35.182Z,10.88
2023-04-06T14:08:43.084Z,11.43
2023-04-06T14:11:14.440Z,12.65
2023-04-06T14:13:42.955Z,10.13
2023-04-06T14:16:10.507Z,11.70
2023-04-06T14:18:38.190Z,14.35
2023-04-06T14:21:05.568Z,12.48
2023-04-06T14:23:34.032Z,12.60
2023-04-06T14:26:09.380Z,13.40
2023-04-06T14:28:37.031Z,13.25
2023-04-06T14:31:13.015Z,12.50
2023-04-06T14:36:16.645Z,11.27
2023-04-06T14:38:50.213Z,11.18
2023-04-06T14:41:19.075Z,10.80
2023-04-06T14:43:49.443Z,13.55
2023-04-06T14:46:17.090Z,11.98
2023-04-06T14:48:44.829Z,12.40
2023-04-06T14:51:12.731Z,11.98
2023-04-06T14:53:40.545Z,12.35
2023-04-06T14:56:08.054Z,11.85
2023-04-06T14:58:35.310Z,10.80
2023-04-06T15:01:03.456Z,11.10
2023-04-06T15:03:31.179Z,12.95
2023-04-06T15:05:59.049Z,11.25
2023-04-06T15:08:26.479Z,13.48
2023-04-06T15:10:55.533Z,12.18
2023-04-06T15:13:22.866Z,10.77
2023-04-06T15:15:52.413Z,9.90
2023-04-06T15:18:19.848Z,10.60
2023-04-06T15:20:47.124Z,15.15
2023-04-06T15:23:14.358Z,11.45
2023-04-06T15:25:42.299Z,13.57
2023-04-06T15:28:09.715Z,12.23
2023-04-06T15:30:37.686Z,12.93
2023-04-06T15:33:07.243Z,12.23
2023-04-06T15:35:42.836Z,12.32
2023-04-06T15:38:10.758Z,10.32
2023-04-06T15:40:46.541Z,13.38
2023-04-06T15:43:14.304Z,14.77
2023-04-06T15:45:41.911Z,10.27
2023-04-06T15:48:09.687Z,14.05
2023-04-06T15:50:38.205Z,12.68
2023-04-06T15:53:05.819Z,11.63
2023-04-06T15:55:33.194Z,10.23
2023-04-06T15:58:00.681Z,11.15
2023-04-06T16:00:28.848Z,11.32
2023-04-06T16:02:57.138Z,15.18
2023-04-06T16:05:25.106Z,11.63
2023-04-06T16:07:53.455Z,12.68
2023-04-06T16:10:21.063Z,11.48
2023-04-06T16:12:48.341Z,12.02
2023-04-06T16:15:15.803Z,13.75
2023-04-06T16:17:43.616Z,12.75
2023-04-06T16:20:12.003Z,12.82
2023-04-06T16:22:39.300Z,12.40
2023-04-06T16:25:06.926Z,11.95
2023-04-06T16:27:34.241Z,12.38
2023-04-06T16:32:29.573Z,12.50
2023-04-06T16:34:58.066Z,11.73
2023-04-06T16:37:27.160Z,10.80
2023-04-06T16:39:54.396Z,11.07
2023-04-06T16:42:21.653Z,12.77
2023-04-06T16:44:49.007Z,11.38
2023-04-06T16:47:16.746Z,12.38
2023-04-06T16:49:44.227Z,13.38
2023-04-06T16:52:11.769Z,12.50
2023-04-06T16:54:39.069Z,10.95
2023-04-06T16:57:06.720Z,11.90
2023-04-06T16:59:35.342Z,10.15
2023-04-06T17:02:02.891Z,11.00
2023-04-06T17:04:30.256Z,12.90
2023-04-06T17:06:57.615Z,14.88
2023-04-06T17:09:25.445Z,14.25
2023-04-06T17:11:53.105Z,14.05
2023-04-06T17:14:20.374Z,13.25
2023-04-06T17:16:47.648Z,11.95
2023-04-06T17:19:14.894Z,15.13
2023-04-06T17:21:42.376Z,12.15
2023-04-06T17:24:09.815Z,10.82
2023-04-06T17:26:37.928Z,11.30
2023-04-06T17:29:05.326Z,13.32
2023-04-06T17:31:32.973Z,12.35
2023-04-06T17:34:00.444Z,11.60
2023-04-06T17:36:28.384Z,10.93
2023-04-06T17:38:55.779Z,12.98
2023-04-06T17:41:24.041Z,12.02
2023-04-06T17:43:51.546Z,12.70
2023-04-06T17:46:21.129Z,16.02
2023-04-06T17:48:48.574Z,13.70
2023-04-06T17:51:18.821Z,11.18
2023-04-06T17:53:46.622Z,13.15
2023-04-06T17:56:14.493Z,11.98
2023-04-06T17:58:42.003Z,14.85
2023-04-06T18:01:11.658Z,18.73
2023-04-06T18:03:39.348Z,15.70
2023-04-06T18:06:13.730Z,12.65
2023-04-06T18:08:42.403Z,11.70
2023-04-06T18:11:21.386Z,13.45
2023-04-06T18:13:49.053Z,12.98
2023-04-06T18:16:17.463Z,14.32
2023-04-06T18:18:45.336Z,12.88
2023-04-06T18:21:12.564Z,17.15
2023-04-06T18:23:39.821Z,14.00
2023-04-06T18:26:14.018Z,14.55
2023-04-06T18:28:41.455Z,15.50
2023-04-06T18:31:08.720Z,18.48
2023-04-06T18:33:36.095Z,17.13
2023-04-06T18:36:03.537Z,15.68
2023-04-06T18:38:31.066Z,15.20
2023-04-06T18:40:58.977Z,15.43
2023-04-06T18:43:26.257Z,13.90
2023-04-06T18:45:53.517Z,12.98
2023-04-06T18:48:20.815Z,14.45
2023-04-06T18:50:57.555Z,15.35
2023-04-06T18:53:24.803Z,13.85
2023-04-06T18:55:52.069Z,15.38
2023-04-06T18:58:19.576Z,18.17
2023-04-06T19:00:47.207Z,18.75
2023-04-06T19:03:14.620Z,18.92
2023-04-06T19:05:42.178Z,17.40
2023-04-06T19:08:09.875Z,18.67
2023-04-06T19:10:38.479Z,17.38
2023-04-06T19:13:06.043Z,18.63
2023-04-06T19:15:36.662Z,15.77
2023-04-06T19:18:04.180Z,13.50
2023-04-06T19:20:34.623Z,15.40
2023-04-06T19:23:03.793Z,13.25
2023-04-06T19:25:31.361Z,17.73
2023-04-06T19:27:58.619Z,16.05
2023-04-06T19:30:26.074Z,14.23
2023-04-06T19:32:53.606Z,14.48
2023-04-06T19:35:21.104Z,15.70
2023-04-06T19:37:48.594Z,15.65
2023-04-06T19:40:16.166Z,16.75
2023-04-06T19:42:43.422Z,16.88
2023-04-06T19:45:11.213Z,20.88
2023-04-06T19:47:39.118Z,14.45
2023-04-06T19:50:09.975Z,15.57
2023-04-06T19:52:37.607Z,13.38
2023-04-06T19:55:05.203Z,14.40
2023-04-06T19:57:32.524Z,15.05
2023-04-06T19:59:59.813Z,17.58
2023-04-06T20:02:27.289Z,16.88
2023-04-06T20:04:54.613Z,16.35
2023-04-06T20:07:22.003Z,16.27
2023-04-06T20:09:49.183Z,16.42
2023-04-06T20:12:16.458Z,15.07
2023-04-06T20:14:43.681Z,16.05
2023-04-06T20:17:10.977Z,16.15
2023-04-06T20:19:38.182Z,18.95
2023-04-06T20:22:05.621Z,17.52
2023-04-06T20:24:32.911Z,13.80
2023-04-06T20:27:00.182Z,16.35
2023-04-06T20:29:27.800Z,13.90
2023-04-06T20:31:55.279Z,17.75
2023-04-06T20:34:25.964Z,19.38
2023-04-06T20:36:53.689Z,14.73
2023-04-06T20:39:21.654Z,17.60
2023-04-06T20:41:49.113Z,17.20
2023-04-06T20:44:16.772Z,15.15
2023-04-06T20:46:45.814Z,14.98
2023-04-06T20:49:13.318Z,16.00
2023-04-06T20:51:42.506Z,17.00
2023-04-06T20:54:10.257Z,15.43
2023-04-06T20:56:38.022Z,18.55
2023-04-06T20:59:05.892Z,17.45
2023-04-06T21:01:33.268Z,14.85
2023-04-06T21:04:02.546Z,15.73
2023-04-06T21:06:32.389Z,15.02
2023-04-06T21:09:00.338Z,18.08
2023-04-06T21:11:27.796Z,16.08
2023-04-06T21:13:55.210Z,15.45
2023-04-06T21:16:22.871Z,18.13
2023-04-06T21:18:50.264Z,15.10
2023-04-06T21:21:17.566Z,17.85
2023-04-06T21:23:44.864Z,15.85
2023-04-06T21:26:13.293Z,16.10
2023-04-06T21:28:40.523Z,17.55
2023-04-06T21:31:10.927Z,19.65
2023-04-06T21:33:38.299Z,15.55
2023-04-06T21:36:07.192Z,16.45
2023-04-06T21:38:37.919Z,14.98
2023-04-06T21:41:06.657Z,15.88
2023-04-06T21:43:34.403Z,17.10
2023-04-06T21:46:02.147Z,15.43
2023-04-06T21:48:29.505Z,16.15
2023-04-06T21:50:56.871Z,15.00
2023-04-06T21:53:24.182Z,15.07
2023-04-06T21:55:51.472Z,15.25
2023-04-06T21:58:18.836Z,15.52
2023-04-06T22:00:46.341Z,17.27
2023-04-06T22:03:13.908Z,15.43
2023-04-06T22:05:41.342Z,17.10
2023-04-06T22:08:11.289Z,16.60
2023-04-06T22:13:13.005Z,16.35
2023-04-06T22:15:40.291Z,16.70
2023-04-06T22:18:07.485Z,16.17
2023-04-06T22:20:34.753Z,15.00
2023-04-06T22:23:02.028Z,18.20
2023-04-06T22:25:29.398Z,15.65
2023-04-06T22:27:56.582Z,16.75
2023-04-06T22:30:23.805Z,20.45
2023-04-06T22:32:51.239Z,15.73
2023-04-06T22:35:18.563Z,13.90
2023-04-06T22:37:45.828Z,15.40
2023-04-06T22:40:13.480Z,15.60
2023-04-06T22:42:40.738Z,17.58
2023-04-06T22:45:09.575Z,13.60
2023-04-06T22:47:37.876Z,16.58
2023-04-06T22:50:05.932Z,15.65
2023-04-06T22:52:33.182Z,12.68
2023-04-06T22:55:00.613Z,16.83
2023-04-06T22:57:29.168Z,15.68
2023-04-06T22:59:56.541Z,13.82
2023-04-06T23:02:23.798Z,14.68
2023-04-06T23:04:51.187Z,14.85
2023-04-06T23:07:18.399Z,17.65
2023-04-06T23:09:45.678Z,15.82
2023-04-06T23:12:13.057Z,14.93
2023-04-06T23:14:40.369Z,17.58
2023-04-06T23:17:07.988Z,14.57
2023-04-06T23:19:35.731Z,14.95
2023-04-06T23:22:03.143Z,13.80
2023-04-06T23:24:30.336Z,17.13
2023-04-06T23:26:57.597Z,13.93
2023-04-06T23:29:24.862Z,15.63
2023-04-06T23:31:52.188Z,17.08
2023-04-06T23:34:19.435Z,16.65
2023-04-06T23:36:46.760Z,17.15
2023-04-06T23:39:14.268Z,13.40
2023-04-06T23:41:41.719Z,16.00
2023-04-06T23:44:09.014Z,14.50
2023-04-06T23:46:36.330Z,14.20
2023-04-06T23:49:03.592Z,16.65
2023-04-06T23:51:31.756Z,16.63
2023-04-06T23:53:59.161Z,19.17
2023-04-06T23:56:26.571Z,16.23
2023-04-06T23:58:53.792Z,22.27
